sensor_id;sensor_type;location;lat;lon;timestamp;temperature;humidity
49855;DHT22;35752;52.164;21.244;2022-09-12T00:02:02;11.40;99.90
49855;DHT22;35752;52.164;21.244;2022-09-12T00:04:28;11.40;99.90
49855;DHT22;35752;52.164;21.244;2022-09-12T00:06:53;11.40;99.90
49855;DHT22;35752;52.164;21.244;2022-09-12T00:09:19;11.40;99.90
49855;DHT22;35752;52.164;21.244;2022-09-12T00:11:45;11.40;99.90
49855;DHT22;35752;52.164;21.244;2022-09-12T00:14:13;11.40;99.90
49855;DHT22;35752;52.164;21.244;2022-09-12T00:16:39;11.40;99.90
49855;DHT22;35752;52.164;21.244;2022-09-12T00:19:05;11.30;99.90
49855;DHT22;35752;52.164;21.244;2022-09-12T00:21:31;11.30;99.90
49855;DHT22;35752;52.164;21.244;2022-09-12T00:23:57;11.30;99.90
49855;DHT22;35752;52.164;21.244;2022-09-12T00:26:23;11.30;99.90
49855;DHT22;35752;52.164;21.244;2022-09-12T00:28:48;11.30;99.90
49855;DHT22;35752;52.164;21.244;2022-09-12T00:31:18;11.30;99.90
49855;DHT22;35752;52.164;21.244;2022-09-12T00:33:44;11.30;99.90
49855;DHT22;35752;52.164;21.244;2022-09-12T00:36:11;11.40;99.90
49855;DHT22;35752;52.164;21.244;2022-09-12T00:38:39;11.30;99.90
49855;DHT22;35752;52.164;21.244;2022-09-12T00:41:06;11.40;99.90
49855;DHT22;35752;52.164;21.244;2022-09-12T00:43:42;11.40;99.90
49855;DHT22;35752;52.164;21.244;2022-09-12T00:46:21;11.40;99.90
49855;DHT22;35752;52.164;21.244;2022-09-12T00:48:55;11.40;99.90
49855;DHT22;35752;52.164;21.244;2022-09-12T00:51:21;11.40;99.90
49855;DHT22;35752;52.164;21.244;2022-09-12T00:53:47;11.40;99.90
49855;DHT22;35752;52.164;21.244;2022-09-12T00:56:13;11.40;99.90
49855;DHT22;35752;52.164;21.244;2022-09-12T00:58:41;11.40;99.90
49855;DHT22;35752;52.164;21.244;2022-09-12T01:01:08;11.40;99.90
49855;DHT22;35752;52.164;21.244;2022-09-12T01:03:34;11.40;99.90
49855;DHT22;35752;52.164;21.244;2022-09-12T01:06:08;11.40;99.90
49855;DHT22;35752;52.164;21.244;2022-09-12T01:08:36;11.30;99.90
49855;DHT22;35752;52.164;21.244;2022-09-12T01:11:04;11.40;99.90
49855;DHT22;35752;52.164;21.244;2022-09-12T01:13:30;11.40;99.90
49855;DHT22;35752;52.164;21.244;2022-09-12T01:15:56;11.40;99.90
49855;DHT22;35752;52.164;21.244;2022-09-12T01:21:29;11.30;99.90
49855;DHT22;35752;52.164;21.244;2022-09-12T01:23:47;11.30;99.90
49855;DHT22;35752;52.164;21.244;2022-09-12T01:34:13;11.30;99.90
49855;DHT22;35752;52.164;21.244;2022-09-12T01:36:45;11.30;99.90
49855;DHT22;35752;52.164;21.244;2022-09-12T01:39:19;11.30;99.90
49855;DHT22;35752;52.164;21.244;2022-09-12T01:47:01;11.20;99.90
49855;DHT22;35752;52.164;21.244;2022-09-12T01:49:34;11.20;99.90
49855;DHT22;35752;52.164;21.244;2022-09-12T01:52:04;11.20;99.90
49855;DHT22;35752;52.164;21.244;2022-09-12T01:56:59;11.20;99.90
49855;DHT22;35752;52.164;21.244;2022-09-12T01:59:44;11.20;99.90
49855;DHT22;35752;52.164;21.244;2022-09-12T02:02:14;11.10;99.90
49855;DHT22;35752;52.164;21.244;2022-09-12T02:04:45;11.10;99.90
49855;DHT22;35752;52.164;21.244;2022-09-12T02:07:15;11.10;99.90
49855;DHT22;35752;52.164;21.244;2022-09-12T02:09:47;11.10;99.90
49855;DHT22;35752;52.164;21.244;2022-09-12T02:12:15;11.10;99.90
49855;DHT22;35752;52.164;21.244;2022-09-12T02:14:42;11.10;99.90
49855;DHT22;35752;52.164;21.244;2022-09-12T02:17:10;11.10;99.90
49855;DHT22;35752;52.164;21.244;2022-09-12T02:19:39;11.10;99.90
49855;DHT22;35752;52.164;21.244;2022-09-12T02:22:05;11.10;99.90
49855;DHT22;35752;52.164;21.244;2022-09-12T02:24:32;11.10;99.90
49855;DHT22;35752;52.164;21.244;2022-09-12T02:29:52;11.00;99.90
49855;DHT22;35752;52.164;21.244;2022-09-12T02:34:49;11.00;99.90
49855;DHT22;35752;52.164;21.244;2022-09-12T02:37:20;11.00;99.90
49855;DHT22;35752;52.164;21.244;2022-09-12T02:39:51;11.00;99.90
49855;DHT22;35752;52.164;21.244;2022-09-12T02:42:19;11.00;99.90
49855;DHT22;35752;52.164;21.244;2022-09-12T02:44:45;11.00;99.90
49855;DHT22;35752;52.164;21.244;2022-09-12T02:47:14;11.00;99.90
49855;DHT22;35752;52.164;21.244;2022-09-12T02:49:41;11.00;99.90
49855;DHT22;35752;52.164;21.244;2022-09-12T02:52:07;11.00;99.90
49855;DHT22;35752;52.164;21.244;2022-09-12T02:54:32;11.00;99.90
49855;DHT22;35752;52.164;21.244;2022-09-12T02:56:58;10.90;99.90
49855;DHT22;35752;52.164;21.244;2022-09-12T02:59:23;11.00;99.90
49855;DHT22;35752;52.164;21.244;2022-09-12T03:07:02;11.00;99.90
49855;DHT22;35752;52.164;21.244;2022-09-12T03:12:07;10.90;99.90
49855;DHT22;35752;52.164;21.244;2022-09-12T03:20:10;10.90;99.90
49855;DHT22;35752;52.164;21.244;2022-09-12T03:25:15;10.90;99.90
49855;DHT22;35752;52.164;21.244;2022-09-12T03:28:04;10.90;99.90
49855;DHT22;35752;52.164;21.244;2022-09-12T03:30:38;10.90;99.90
49855;DHT22;35752;52.164;21.244;2022-09-12T03:33:04;10.90;99.90
49855;DHT22;35752;52.164;21.244;2022-09-12T03:35:30;10.90;99.90
49855;DHT22;35752;52.164;21.244;2022-09-12T03:37:55;10.90;99.90
49855;DHT22;35752;52.164;21.244;2022-09-12T03:40:21;10.90;99.90
49855;DHT22;35752;52.164;21.244;2022-09-12T03:42:47;10.90;99.90
49855;DHT22;35752;52.164;21.244;2022-09-12T03:45:12;10.90;99.90
49855;DHT22;35752;52.164;21.244;2022-09-12T03:47:38;10.90;99.90
49855;DHT22;35752;52.164;21.244;2022-09-12T03:50:04;10.90;99.90
49855;DHT22;35752;52.164;21.244;2022-09-12T03:52:30;11.00;99.90
49855;DHT22;35752;52.164;21.244;2022-09-12T03:54:56;11.00;99.90
49855;DHT22;35752;52.164;21.244;2022-09-12T03:57:21;11.00;99.90
49855;DHT22;35752;52.164;21.244;2022-09-12T03:59:47;11.00;99.90
49855;DHT22;35752;52.164;21.244;2022-09-12T04:02:13;11.00;99.90
49855;DHT22;35752;52.164;21.244;2022-09-12T04:04:42;11.00;99.90
49855;DHT22;35752;52.164;21.244;2022-09-12T04:07:08;11.10;99.90
49855;DHT22;35752;52.164;21.244;2022-09-12T04:09:34;11.10;99.90
49855;DHT22;35752;52.164;21.244;2022-09-12T04:11:59;11.10;99.90
49855;DHT22;35752;52.164;21.244;2022-09-12T04:14:25;11.10;99.90
49855;DHT22;35752;52.164;21.244;2022-09-12T04:16:51;11.10;99.90
49855;DHT22;35752;52.164;21.244;2022-09-12T04:19:16;11.10;99.90
49855;DHT22;35752;52.164;21.244;2022-09-12T04:21:42;11.10;99.90
49855;DHT22;35752;52.164;21.244;2022-09-12T04:24:08;11.20;99.90
49855;DHT22;35752;52.164;21.244;2022-09-12T04:26:33;11.10;99.90
49855;DHT22;35752;52.164;21.244;2022-09-12T04:28:59;11.10;99.90
49855;DHT22;35752;52.164;21.244;2022-09-12T04:31:24;11.10;99.90
49855;DHT22;35752;52.164;21.244;2022-09-12T04:33:57;11.10;99.90
49855;DHT22;35752;52.164;21.244;2022-09-12T04:36:23;11.10;99.90
49855;DHT22;35752;52.164;21.244;2022-09-12T04:38:48;11.10;99.90
49855;DHT22;35752;52.164;21.244;2022-09-12T04:41:15;11.10;99.90
49855;DHT22;35752;52.164;21.244;2022-09-12T04:43:41;11.10;99.90
49855;DHT22;35752;52.164;21.244;2022-09-12T04:46:08;11.10;99.90
49855;DHT22;35752;52.164;21.244;2022-09-12T04:48:33;11.10;99.90
49855;DHT22;35752;52.164;21.244;2022-09-12T04:51:09;11.00;99.90
49855;DHT22;35752;52.164;21.244;2022-09-12T04:53:35;11.10;99.90
49855;DHT22;35752;52.164;21.244;2022-09-12T04:56:05;11.00;99.90
49855;DHT22;35752;52.164;21.244;2022-09-12T04:58:31;11.00;99.90
49855;DHT22;35752;52.164;21.244;2022-09-12T05:01:10;11.00;99.90
49855;DHT22;35752;52.164;21.244;2022-09-12T05:03:36;11.00;99.90
49855;DHT22;35752;52.164;21.244;2022-09-12T05:06:05;11.00;99.90
49855;DHT22;35752;52.164;21.244;2022-09-12T05:08:31;10.90;99.90
49855;DHT22;35752;52.164;21.244;2022-09-12T05:11:01;10.90;99.90
49855;DHT22;35752;52.164;21.244;2022-09-12T05:13:26;10.90;99.90
49855;DHT22;35752;52.164;21.244;2022-09-12T05:15:55;10.90;99.90
49855;DHT22;35752;52.164;21.244;2022-09-12T05:18:21;10.90;99.90
49855;DHT22;35752;52.164;21.244;2022-09-12T05:20:47;10.90;99.90
49855;DHT22;35752;52.164;21.244;2022-09-12T05:23:12;10.80;99.90
49855;DHT22;35752;52.164;21.244;2022-09-12T05:25:38;10.80;99.90
49855;DHT22;35752;52.164;21.244;2022-09-12T05:28:03;10.90;99.90
49855;DHT22;35752;52.164;21.244;2022-09-12T05:30:29;10.80;99.90
49855;DHT22;35752;52.164;21.244;2022-09-12T05:32:55;10.90;99.90
49855;DHT22;35752;52.164;21.244;2022-09-12T05:35:20;10.80;99.90
49855;DHT22;35752;52.164;21.244;2022-09-12T05:37:46;10.70;99.90
49855;DHT22;35752;52.164;21.244;2022-09-12T05:40:11;10.70;99.90
49855;DHT22;35752;52.164;21.244;2022-09-12T05:42:40;10.80;99.90
49855;DHT22;35752;52.164;21.244;2022-09-12T05:45:05;10.80;99.90
49855;DHT22;35752;52.164;21.244;2022-09-12T05:47:31;10.80;99.90
49855;DHT22;35752;52.164;21.244;2022-09-12T05:49:56;10.80;99.90
49855;DHT22;35752;52.164;21.244;2022-09-12T05:52:23;10.80;99.90
49855;DHT22;35752;52.164;21.244;2022-09-12T05:54:48;10.80;99.90
49855;DHT22;35752;52.164;21.244;2022-09-12T05:57:14;10.80;99.90
49855;DHT22;35752;52.164;21.244;2022-09-12T05:59:39;10.80;99.90
49855;DHT22;35752;52.164;21.244;2022-09-12T06:02:05;10.80;99.90
49855;DHT22;35752;52.164;21.244;2022-09-12T06:04:30;10.90;99.90
49855;DHT22;35752;52.164;21.244;2022-09-12T06:06:56;10.90;99.90
49855;DHT22;35752;52.164;21.244;2022-09-12T06:09:21;10.90;99.90
49855;DHT22;35752;52.164;21.244;2022-09-12T06:11:49;10.90;99.90
49855;DHT22;35752;52.164;21.244;2022-09-12T06:14:16;11.00;99.90
49855;DHT22;35752;52.164;21.244;2022-09-12T06:16:42;11.00;99.90
49855;DHT22;35752;52.164;21.244;2022-09-12T06:19:13;11.00;99.90
49855;DHT22;35752;52.164;21.244;2022-09-12T06:21:39;11.10;99.90
49855;DHT22;35752;52.164;21.244;2022-09-12T06:24:05;11.10;99.90
49855;DHT22;35752;52.164;21.244;2022-09-12T06:26:31;11.00;99.90
49855;DHT22;35752;52.164;21.244;2022-09-12T06:28:58;11.00;99.90
49855;DHT22;35752;52.164;21.244;2022-09-12T06:31:25;10.90;99.90
49855;DHT22;35752;52.164;21.244;2022-09-12T06:33:52;10.90;99.90
49855;DHT22;35752;52.164;21.244;2022-09-12T06:36:19;10.90;99.90
49855;DHT22;35752;52.164;21.244;2022-09-12T06:38:46;10.90;99.90
49855;DHT22;35752;52.164;21.244;2022-09-12T06:41:13;10.90;99.90
49855;DHT22;35752;52.164;21.244;2022-09-12T06:43:39;11.00;99.90
49855;DHT22;35752;52.164;21.244;2022-09-12T06:46:05;11.00;99.90
49855;DHT22;35752;52.164;21.244;2022-09-12T06:48:31;11.10;99.90
49855;DHT22;35752;52.164;21.244;2022-09-12T06:51:01;11.10;99.90
49855;DHT22;35752;52.164;21.244;2022-09-12T06:53:27;11.10;99.90
49855;DHT22;35752;52.164;21.244;2022-09-12T06:55:54;11.10;99.90
49855;DHT22;35752;52.164;21.244;2022-09-12T06:58:19;11.10;99.90
49855;DHT22;35752;52.164;21.244;2022-09-12T07:00:45;11.20;99.90
49855;DHT22;35752;52.164;21.244;2022-09-12T07:03:11;11.10;99.90
49855;DHT22;35752;52.164;21.244;2022-09-12T07:05:36;11.20;99.90
49855;DHT22;35752;52.164;21.244;2022-09-12T07:08:02;11.20;99.90
49855;DHT22;35752;52.164;21.244;2022-09-12T07:10:28;11.30;99.90
49855;DHT22;35752;52.164;21.244;2022-09-12T07:12:55;11.30;99.90
49855;DHT22;35752;52.164;21.244;2022-09-12T07:15:20;11.40;99.90
49855;DHT22;35752;52.164;21.244;2022-09-12T07:17:46;11.40;99.90
49855;DHT22;35752;52.164;21.244;2022-09-12T07:20:11;11.40;99.90
49855;DHT22;35752;52.164;21.244;2022-09-12T07:22:37;11.40;99.90
49855;DHT22;35752;52.164;21.244;2022-09-12T07:25:02;11.40;99.90
49855;DHT22;35752;52.164;21.244;2022-09-12T07:27:29;11.40;99.90
49855;DHT22;35752;52.164;21.244;2022-09-12T07:29:54;11.50;99.90
49855;DHT22;35752;52.164;21.244;2022-09-12T07:32:20;11.50;99.90
49855;DHT22;35752;52.164;21.244;2022-09-12T07:34:47;11.60;99.90
49855;DHT22;35752;52.164;21.244;2022-09-12T07:37:14;11.60;99.90
49855;DHT22;35752;52.164;21.244;2022-09-12T07:39:39;11.60;99.90
49855;DHT22;35752;52.164;21.244;2022-09-12T07:42:05;11.70;99.90
49855;DHT22;35752;52.164;21.244;2022-09-12T07:44:31;11.70;99.90
49855;DHT22;35752;52.164;21.244;2022-09-12T07:46:56;11.80;99.90
49855;DHT22;35752;52.164;21.244;2022-09-12T07:49:22;11.80;99.90
49855;DHT22;35752;52.164;21.244;2022-09-12T07:51:48;11.80;99.90
49855;DHT22;35752;52.164;21.244;2022-09-12T07:54:13;11.80;99.90
49855;DHT22;35752;52.164;21.244;2022-09-12T07:56:40;11.80;99.90
49855;DHT22;35752;52.164;21.244;2022-09-12T07:59:06;11.80;99.90
49855;DHT22;35752;52.164;21.244;2022-09-12T08:01:32;11.80;99.90
49855;DHT22;35752;52.164;21.244;2022-09-12T08:03:58;11.80;99.90
49855;DHT22;35752;52.164;21.244;2022-09-12T08:06:24;11.80;99.90
49855;DHT22;35752;52.164;21.244;2022-09-12T08:08:51;11.70;99.90
49855;DHT22;35752;52.164;21.244;2022-09-12T08:11:17;11.70;99.90
49855;DHT22;35752;52.164;21.244;2022-09-12T08:13:44;11.70;99.90
49855;DHT22;35752;52.164;21.244;2022-09-12T08:16:11;11.80;99.90
49855;DHT22;35752;52.164;21.244;2022-09-12T08:18:37;11.80;99.90
49855;DHT22;35752;52.164;21.244;2022-09-12T08:21:04;11.80;99.90
49855;DHT22;35752;52.164;21.244;2022-09-12T08:23:30;11.80;99.90
49855;DHT22;35752;52.164;21.244;2022-09-12T08:25:57;11.90;99.90
49855;DHT22;35752;52.164;21.244;2022-09-12T08:28:23;11.90;99.90
49855;DHT22;35752;52.164;21.244;2022-09-12T08:30:49;12.00;99.90
49855;DHT22;35752;52.164;21.244;2022-09-12T08:33:15;12.00;99.90
49855;DHT22;35752;52.164;21.244;2022-09-12T08:35:41;12.10;99.90
49855;DHT22;35752;52.164;21.244;2022-09-12T08:38:06;12.10;99.90
49855;DHT22;35752;52.164;21.244;2022-09-12T08:40:32;12.20;99.90
49855;DHT22;35752;52.164;21.244;2022-09-12T08:43:12;12.30;99.90
49855;DHT22;35752;52.164;21.244;2022-09-12T08:45:46;12.30;99.90
49855;DHT22;35752;52.164;21.244;2022-09-12T08:48:15;12.30;99.90
49855;DHT22;35752;52.164;21.244;2022-09-12T08:50:40;12.20;99.90
49855;DHT22;35752;52.164;21.244;2022-09-12T08:53:13;12.40;99.90
49855;DHT22;35752;52.164;21.244;2022-09-12T08:55:44;12.50;99.90
49855;DHT22;35752;52.164;21.244;2022-09-12T08:58:12;12.60;99.90
49855;DHT22;35752;52.164;21.244;2022-09-12T09:16:42;13.20;99.90
49855;DHT22;35752;52.164;21.244;2022-09-12T09:19:14;13.10;99.90
49855;DHT22;35752;52.164;21.244;2022-09-12T09:21:43;13.00;99.90
49855;DHT22;35752;52.164;21.244;2022-09-12T09:24:10;13.10;99.90
49855;DHT22;35752;52.164;21.244;2022-09-12T09:26:56;13.30;99.90
49855;DHT22;35752;52.164;21.244;2022-09-12T09:29:23;13.20;99.90
49855;DHT22;35752;52.164;21.244;2022-09-12T09:31:51;13.30;99.90
49855;DHT22;35752;52.164;21.244;2022-09-12T09:34:19;13.40;99.90
49855;DHT22;35752;52.164;21.244;2022-09-12T09:39:14;13.30;99.90
49855;DHT22;35752;52.164;21.244;2022-09-12T09:41:46;13.30;99.90
49855;DHT22;35752;52.164;21.244;2022-09-12T09:44:13;13.20;99.90
49855;DHT22;35752;52.164;21.244;2022-09-12T09:46:39;13.30;99.90
49855;DHT22;35752;52.164;21.244;2022-09-12T09:49:04;13.20;99.90
49855;DHT22;35752;52.164;21.244;2022-09-12T09:51:35;13.30;99.90
49855;DHT22;35752;52.164;21.244;2022-09-12T09:54:09;13.20;99.90
49855;DHT22;35752;52.164;21.244;2022-09-12T09:56:37;13.10;99.90
49855;DHT22;35752;52.164;21.244;2022-09-12T09:59:25;13.20;99.90
49855;DHT22;35752;52.164;21.244;2022-09-12T10:01:52;13.20;99.90
49855;DHT22;35752;52.164;21.244;2022-09-12T10:06:44;13.30;99.90
49855;DHT22;35752;52.164;21.244;2022-09-12T10:11:39;13.40;99.90
49855;DHT22;35752;52.164;21.244;2022-09-12T10:14:07;13.30;99.90
49855;DHT22;35752;52.164;21.244;2022-09-12T10:16:50;13.30;99.90
49855;DHT22;35752;52.164;21.244;2022-09-12T10:19:38;13.30;99.90
49855;DHT22;35752;52.164;21.244;2022-09-12T10:22:04;13.30;99.90
49855;DHT22;35752;52.164;21.244;2022-09-12T10:29:31;13.40;99.90
49855;DHT22;35752;52.164;21.244;2022-09-12T10:31:58;13.40;99.90
49855;DHT22;35752;52.164;21.244;2022-09-12T10:34:26;13.30;99.90
49855;DHT22;35752;52.164;21.244;2022-09-12T10:36:58;13.30;99.90
49855;DHT22;35752;52.164;21.244;2022-09-12T10:39:24;13.30;99.90
49855;DHT22;35752;52.164;21.244;2022-09-12T10:41:50;13.30;99.90
49855;DHT22;35752;52.164;21.244;2022-09-12T10:44:17;13.20;99.90
49855;DHT22;35752;52.164;21.244;2022-09-12T10:46:43;13.30;99.90
49855;DHT22;35752;52.164;21.244;2022-09-12T10:49:13;13.20;99.90
49855;DHT22;35752;52.164;21.244;2022-09-12T10:51:43;13.40;99.90
49855;DHT22;35752;52.164;21.244;2022-09-12T10:54:09;13.50;99.90
49855;DHT22;35752;52.164;21.244;2022-09-12T10:56:38;13.60;99.90
49855;DHT22;35752;52.164;21.244;2022-09-12T11:01:43;13.50;99.90
49855;DHT22;35752;52.164;21.244;2022-09-12T11:09:42;13.70;99.90
49855;DHT22;35752;52.164;21.244;2022-09-12T11:12:19;13.70;99.90
49855;DHT22;35752;52.164;21.244;2022-09-12T11:14:54;13.70;99.90
49855;DHT22;35752;52.164;21.244;2022-09-12T11:17:35;13.80;99.90
49855;DHT22;35752;52.164;21.244;2022-09-12T11:25:11;14.10;99.90
49855;DHT22;35752;52.164;21.244;2022-09-12T11:30:23;14.00;99.90
49855;DHT22;35752;52.164;21.244;2022-09-12T11:35:34;13.90;99.90
49855;DHT22;35752;52.164;21.244;2022-09-12T11:43:22;13.80;99.90
49855;DHT22;35752;52.164;21.244;2022-09-12T11:45:49;13.80;99.90
49855;DHT22;35752;52.164;21.244;2022-09-12T11:49:04;13.90;99.90
49855;DHT22;35752;52.164;21.244;2022-09-12T11:51:02;14.00;99.90
49855;DHT22;35752;52.164;21.244;2022-09-12T11:53:30;14.10;99.90
49855;DHT22;35752;52.164;21.244;2022-09-12T11:56:01;14.10;99.90
49855;DHT22;35752;52.164;21.244;2022-09-12T11:58:29;14.00;99.90
49855;DHT22;35752;52.164;21.244;2022-09-12T12:00:56;14.00;99.90
49855;DHT22;35752;52.164;21.244;2022-09-12T12:03:30;13.90;99.90
49855;DHT22;35752;52.164;21.244;2022-09-12T12:08:26;13.90;99.90
49855;DHT22;35752;52.164;21.244;2022-09-12T12:10:55;13.90;99.90
49855;DHT22;35752;52.164;21.244;2022-09-12T12:13:31;13.80;99.90
49855;DHT22;35752;52.164;21.244;2022-09-12T12:15:59;13.80;99.90
49855;DHT22;35752;52.164;21.244;2022-09-12T12:18:26;13.70;99.90
49855;DHT22;35752;52.164;21.244;2022-09-12T12:20:52;13.70;99.90
49855;DHT22;35752;52.164;21.244;2022-09-12T12:23:28;13.80;99.90
49855;DHT22;35752;52.164;21.244;2022-09-12T12:26:01;13.80;99.90
49855;DHT22;35752;52.164;21.244;2022-09-12T12:31:14;13.90;99.90
49855;DHT22;35752;52.164;21.244;2022-09-12T12:36:09;14.10;99.90
49855;DHT22;35752;52.164;21.244;2022-09-12T12:38:35;14.10;99.90
49855;DHT22;35752;52.164;21.244;2022-09-12T12:43:46;14.20;99.90
49855;DHT22;35752;52.164;21.244;2022-09-12T12:46:12;14.20;99.90
49855;DHT22;35752;52.164;21.244;2022-09-12T12:51:25;14.20;99.90
49855;DHT22;35752;52.164;21.244;2022-09-12T12:53:52;14.30;99.90
49855;DHT22;35752;52.164;21.244;2022-09-12T12:58:50;14.30;99.90
49855;DHT22;35752;52.164;21.244;2022-09-12T13:01:21;14.20;99.90
49855;DHT22;35752;52.164;21.244;2022-09-12T13:04:00;14.10;99.90
49855;DHT22;35752;52.164;21.244;2022-09-12T13:09:08;14.10;99.90
49855;DHT22;35752;52.164;21.244;2022-09-12T13:11:42;14.10;99.90
49855;DHT22;35752;52.164;21.244;2022-09-12T13:17:02;14.20;99.90
49855;DHT22;35752;52.164;21.244;2022-09-12T13:19:29;14.20;99.90
49855;DHT22;35752;52.164;21.244;2022-09-12T13:22:03;14.20;99.90
49855;DHT22;35752;52.164;21.244;2022-09-12T13:24:29;14.20;99.90
49855;DHT22;35752;52.164;21.244;2022-09-12T13:26:55;14.30;99.90
49855;DHT22;35752;52.164;21.244;2022-09-12T13:29:22;14.30;99.90
49855;DHT22;35752;52.164;21.244;2022-09-12T13:31:58;14.30;99.90
49855;DHT22;35752;52.164;21.244;2022-09-12T13:44:10;14.30;99.90
49855;DHT22;35752;52.164;21.244;2022-09-12T13:46:37;14.40;99.90
49855;DHT22;35752;52.164;21.244;2022-09-12T13:49:16;14.40;99.90
49855;DHT22;35752;52.164;21.244;2022-09-12T13:51:42;14.40;99.90
49855;DHT22;35752;52.164;21.244;2022-09-12T13:54:11;14.40;99.90
49855;DHT22;35752;52.164;21.244;2022-09-12T13:56:49;14.40;99.90
49855;DHT22;35752;52.164;21.244;2022-09-12T13:59:15;14.40;99.90
49855;DHT22;35752;52.164;21.244;2022-09-12T14:01:41;14.40;99.90
49855;DHT22;35752;52.164;21.244;2022-09-12T14:06:58;14.40;99.90
49855;DHT22;35752;52.164;21.244;2022-09-12T14:09:25;14.40;99.90
49855;DHT22;35752;52.164;21.244;2022-09-12T14:11:53;14.40;99.90
49855;DHT22;35752;52.164;21.244;2022-09-12T14:16:53;14.40;99.90
49855;DHT22;35752;52.164;21.244;2022-09-12T14:19:20;14.40;99.90
49855;DHT22;35752;52.164;21.244;2022-09-12T14:21:47;14.40;99.90
49855;DHT22;35752;52.164;21.244;2022-09-12T14:24:14;14.40;99.90
49855;DHT22;35752;52.164;21.244;2022-09-12T14:26:39;14.30;99.90
49855;DHT22;35752;52.164;21.244;2022-09-12T14:29:06;14.30;99.90
49855;DHT22;35752;52.164;21.244;2022-09-12T14:31:33;14.30;99.90
49855;DHT22;35752;52.164;21.244;2022-09-12T14:34:18;14.30;99.90
49855;DHT22;35752;52.164;21.244;2022-09-12T14:36:47;14.30;99.90
49855;DHT22;35752;52.164;21.244;2022-09-12T14:39:47;14.20;99.90
49855;DHT22;35752;52.164;21.244;2022-09-12T14:44:32;14.10;99.90
49855;DHT22;35752;52.164;21.244;2022-09-12T14:47:00;14.10;99.90
49855;DHT22;35752;52.164;21.244;2022-09-12T14:49:34;14.10;99.90
49855;DHT22;35752;52.164;21.244;2022-09-12T14:52:02;14.10;99.90
49855;DHT22;35752;52.164;21.244;2022-09-12T14:56:58;14.10;99.90
49855;DHT22;35752;52.164;21.244;2022-09-12T14:59:25;14.10;99.90
49855;DHT22;35752;52.164;21.244;2022-09-12T15:04:36;14.00;99.90
49855;DHT22;35752;52.164;21.244;2022-09-12T15:07:12;14.00;99.90
49855;DHT22;35752;52.164;21.244;2022-09-12T15:09:37;14.00;99.90
49855;DHT22;35752;52.164;21.244;2022-09-12T15:12:03;14.00;99.90
49855;DHT22;35752;52.164;21.244;2022-09-12T15:14:28;14.00;99.90
49855;DHT22;35752;52.164;21.244;2022-09-12T15:16:54;14.00;99.90
49855;DHT22;35752;52.164;21.244;2022-09-12T15:19:19;14.00;99.90
49855;DHT22;35752;52.164;21.244;2022-09-12T15:21:45;14.00;99.90
49855;DHT22;35752;52.164;21.244;2022-09-12T15:24:10;13.90;99.90
49855;DHT22;35752;52.164;21.244;2022-09-12T15:26:36;13.90;99.90
49855;DHT22;35752;52.164;21.244;2022-09-12T15:29:01;13.90;99.90
49855;DHT22;35752;52.164;21.244;2022-09-12T15:31:28;13.90;99.90
49855;DHT22;35752;52.164;21.244;2022-09-12T15:33:55;13.90;99.90
49855;DHT22;35752;52.164;21.244;2022-09-12T15:36:21;13.90;99.90
49855;DHT22;35752;52.164;21.244;2022-09-12T15:38:48;13.80;99.90
49855;DHT22;35752;52.164;21.244;2022-09-12T15:41:30;13.80;99.90
49855;DHT22;35752;52.164;21.244;2022-09-12T15:43:55;13.80;99.90
49855;DHT22;35752;52.164;21.244;2022-09-12T15:46:21;13.80;99.90
49855;DHT22;35752;52.164;21.244;2022-09-12T15:48:46;13.90;99.90
49855;DHT22;35752;52.164;21.244;2022-09-12T15:51:19;13.90;99.90
49855;DHT22;35752;52.164;21.244;2022-09-12T15:53:45;13.80;99.90
49855;DHT22;35752;52.164;21.244;2022-09-12T15:56:12;13.90;99.90
49855;DHT22;35752;52.164;21.244;2022-09-12T15:58:37;13.80;99.90
49855;DHT22;35752;52.164;21.244;2022-09-12T16:01:03;13.80;99.90
49855;DHT22;35752;52.164;21.244;2022-09-12T16:03:29;13.80;99.90
49855;DHT22;35752;52.164;21.244;2022-09-12T16:05:56;13.80;99.90
49855;DHT22;35752;52.164;21.244;2022-09-12T16:08:22;13.80;99.90
49855;DHT22;35752;52.164;21.244;2022-09-12T16:10:48;13.80;99.90
49855;DHT22;35752;52.164;21.244;2022-09-12T16:13:16;13.70;99.90
49855;DHT22;35752;52.164;21.244;2022-09-12T16:15:41;13.70;99.90
49855;DHT22;35752;52.164;21.244;2022-09-12T16:18:07;13.70;99.90
49855;DHT22;35752;52.164;21.244;2022-09-12T16:20:33;13.70;99.90
49855;DHT22;35752;52.164;21.244;2022-09-12T16:22:58;13.70;99.90
49855;DHT22;35752;52.164;21.244;2022-09-12T16:25:24;13.70;99.90
49855;DHT22;35752;52.164;21.244;2022-09-12T16:27:49;13.70;99.90
49855;DHT22;35752;52.164;21.244;2022-09-12T16:30:15;13.70;99.90
49855;DHT22;35752;52.164;21.244;2022-09-12T16:32:40;13.60;99.90
49855;DHT22;35752;52.164;21.244;2022-09-12T16:35:06;13.70;99.90
49855;DHT22;35752;52.164;21.244;2022-09-12T16:37:32;13.70;99.90
49855;DHT22;35752;52.164;21.244;2022-09-12T16:39:59;13.60;99.90
49855;DHT22;35752;52.164;21.244;2022-09-12T16:42:24;13.60;99.90
49855;DHT22;35752;52.164;21.244;2022-09-12T16:44:51;13.50;99.90
49855;DHT22;35752;52.164;21.244;2022-09-12T16:47:16;13.50;99.90
49855;DHT22;35752;52.164;21.244;2022-09-12T16:49:42;13.60;99.90
49855;DHT22;35752;52.164;21.244;2022-09-12T16:52:08;13.60;99.90
49855;DHT22;35752;52.164;21.244;2022-09-12T16:54:35;13.50;99.90
49855;DHT22;35752;52.164;21.244;2022-09-12T16:57:01;13.60;99.90
49855;DHT22;35752;52.164;21.244;2022-09-12T16:59:29;13.50;99.90
49855;DHT22;35752;52.164;21.244;2022-09-12T17:01:55;13.50;99.90
49855;DHT22;35752;52.164;21.244;2022-09-12T17:04:20;13.50;99.90
49855;DHT22;35752;52.164;21.244;2022-09-12T17:06:46;13.40;99.90
49855;DHT22;35752;52.164;21.244;2022-09-12T17:09:11;13.50;99.90
49855;DHT22;35752;52.164;21.244;2022-09-12T17:11:43;13.50;99.90
49855;DHT22;35752;52.164;21.244;2022-09-12T17:14:09;13.50;99.90
49855;DHT22;35752;52.164;21.244;2022-09-12T17:16:35;13.50;99.90
49855;DHT22;35752;52.164;21.244;2022-09-12T17:19:01;13.50;99.90
49855;DHT22;35752;52.164;21.244;2022-09-12T17:21:27;13.50;99.90
49855;DHT22;35752;52.164;21.244;2022-09-12T17:23:53;13.60;99.90
49855;DHT22;35752;52.164;21.244;2022-09-12T17:26:18;13.60;99.90
49855;DHT22;35752;52.164;21.244;2022-09-12T17:28:45;13.60;99.90
49855;DHT22;35752;52.164;21.244;2022-09-12T17:31:11;13.50;99.90
49855;DHT22;35752;52.164;21.244;2022-09-12T17:33:37;13.50;99.90
49855;DHT22;35752;52.164;21.244;2022-09-12T17:36:07;13.40;99.90